Aérodrome :
LOGIN :

S'inscrire | Disclaimer

   EN    FR    IT 

 










Légende :    VFR   VFR Marginal   IFR   IFR Intensif   IFR Très Intensif
Visi : 
Plafond : 
>= 8 km
>= 3000ft
5 à 8 km
1000 à 3000 ft
1500m à 5 km
500 à 1000 ft
800 à 1500m
200 à 500 ft
< 800m
< 200 ft
Symboles :   Orages  Brouillard  Fortes neiges  Fortes précipitations  Vent > 20 kt
SIGMETs :   Divers  Orages  Givrage  Turbulence  Onde Orograph.  Cendres Volcan.







- Altitude de l'aérodrome : -15 ft
- Code IATA : RTM


EHRD - Rotterdam Zestienhoven

DERNIER METAR :
  • 191225Z AUTO VRB02KT 9999 FEW026 SCT032 BKN037 15/09 Q1031 NOSIG

METARs EXPIRÉS :
  • 191155Z AUTO VRB02KT 9999 SCT033 BKN038 15/10 Q1031 NOSIG
  • 191125Z AUTO VRB02KT 9999 BKN027 OVC031 15/10 Q1031 NOSIG
  • 191055Z AUTO VRB03KT 9999 SCT021 BKN035 15/10 Q1031 NOSIG
  • 191025Z AUTO VRB03KT 9999 BKN036 15/11 Q1032 NOSIG

TAF TAF EHRD
Valide du 19 à 12h jusqu'au 20 à 18h UTC


191058Z 1912/2018 35005KT 9999 SCT040
BECMG 1922/2001 6000 MIFG
PROB40 2000/2006 2000 BCFG
BECMG 2006/2008 9999 NSW
Pas de NOTAMs connus pour ce terrain.



MET'MAP, la Météo Aéronautique d'un coup d'oeil ! - Copyright ORBIFLY Décembre 2007 - Disclaimer

ORBIFLY MET'MAP TEAM :

Programmation & Développement : Alexandra Zaïnal
Conception & Développement : Baudouin d'Aumeries
Co-Programmation & Développement : Marc-Olivier Méhu
Soutien technique & logistique : Manuel Goepfert

Contact : metmap@orbifly.com




SOURCES & CREDITS :

   NOAA